Flugplatz Dresden

Bericht für EDDC

vom 18.09. um 02:20 UTC

Wind 4 kt aus 310°

Sichtweite 10 km oder mehr

gering bewölkt in 3700 ft

aufgebrochene Bewölkung in 3900 ft

Temperatur 12.0°C

Taupunkt 10.0°C

Luftfeuchtigkeit 88%

Luftdruck 1014 hPa

EDDC 180220Z 31004KT 280V350 9999 FEW037 BKN039 12/10 Q1014

Prognose für EDDC

vom 17.09. um 23:00 UTC

Zwischen 00:00 UTC und 06:00 UTC

Wind 6 kt aus 280°

Sichtweite 10 km oder mehr

aufgebrochene Bewölkung in 3500 ft


Zwischen 06:00 und 08:00 UTC übergehend zu

Wind 6 kt aus 280°

Sichtweite 10 km oder mehr

aufgebrochene Bewölkung in 1300 ft


Zwischen 07:00 UTC und 09:00 UTC zeitweise

Sichtweite 4000 m

schwacher Regen

aufgebrochene Bewölkung in 600 ft


Zwischen 09:00 UTC und 13:00 UTC zeitweise

aufgebrochene Bewölkung in 800 ft


Zwischen 14:00 und 16:00 UTC übergehend zu

Wind 5 kt aus 350°

Sichtweite 10 km oder mehr

aufgebrochene Bewölkung in 2000 ft

TAF EDDC 172300Z 1800/1824 28006KT 9999 BKN035 BECMG 1806/1808 BKN013 TEMPO 1807/1809 4000 -RA BKN006 TEMPO 1809/1813 BKN008 BECMG 1814/1816 35005KT BKN020
Impressum